Time;durP1;ratioP1;P1;durP2;ratioP2;P2;SDS_P1;SDS_P2;PMS_P1;PMS_P2;Temp;Humidity;BMP_temperature;BMP_pressure;BME280_temperature;BME280_humidity;BME280_pressure;Samples;Min_cycle;Max_cycle;Signal;HPM_P1;HPM_P2
2022/09/16 00:00:23;;;;;;;15.15;3.35;;;;;;;21.13;73.58;100334.72;6187274;23;20028;-74
2022/09/16 00:02:54;;;;;;;8.45;3.25;;;;;;;20.85;73.35;100297.72;6210907;23;20021;-74
2022/09/16 00:05:21;;;;;;;7.22;3.70;;;;;;;20.89;74.11;100302.38;6214053;23;20043;-74
2022/09/16 00:07:48;;;;;;;15.80;3.90;;;;;;;20.99;73.64;100318.06;6213484;23;20017;-75
2022/09/16 00:10:16;;;;;;;6.85;3.40;;;;;;;21.02;73.27;100321.00;6212881;23;20020;-73
2022/09/16 00:12:43;;;;;;;9.07;4.05;;;;;;;21.09;73.78;100322.41;6213004;23;20021;-74
2022/09/16 00:15:10;;;;;;;5.20;2.88;;;;;;;21.00;73.37;100309.19;6214089;23;20367;-74
2022/09/16 00:17:37;;;;;;;6.88;3.45;;;;;;;21.00;73.85;100308.38;6187799;23;20024;-74
2022/09/16 00:20:05;;;;;;;6.30;3.20;;;;;;;20.83;73.59;100283.91;6213367;23;20028;-74
2022/09/16 00:22:32;;;;;;;10.98;4.65;;;;;;;20.98;73.45;100297.34;6212870;23;20028;-74
2022/09/16 00:24:59;;;;;;;11.70;4.35;;;;;;;20.99;73.65;100306.69;6187149;23;20031;-74
2022/09/16 00:27:26;;;;;;;14.30;3.95;;;;;;;20.83;73.61;100275.41;6213438;23;20017;-73
2022/09/16 00:29:52;;;;;;;9.63;4.05;;;;;;;20.87;73.72;100289.69;6189008;23;20452;-74
2022/09/16 00:32:19;;;;;;;18.05;4.55;;;;;;;21.03;73.75;100319.84;6214219;23;20080;-73
2022/09/16 00:34:46;;;;;;;14.48;4.82;;;;;;;20.94;73.50;100307.78;6214950;23;20341;-73
2022/09/16 00:37:14;;;;;;;10.50;5.03;;;;;;;20.98;73.39;100300.19;6214165;23;20348;-74
2022/09/16 00:39:41;;;;;;;10.90;4.80;;;;;;;20.86;73.15;100291.72;6213432;23;20028;-73
2022/09/16 00:42:11;;;;;;;12.43;4.85;;;;;;;21.05;73.32;100305.28;6213076;23;20341;-73
2022/09/16 00:45:01;;;;;;;10.68;4.10;;;;;;;20.92;73.28;100301.66;6214195;23;20021;-73
2022/09/16 00:47:37;;;;;;;9.23;4.20;;;;;;;21.12;73.04;100321.72;6213977;23;20025;-73
2022/09/16 00:51:02;;;;;;;10.88;4.43;;;;;;;21.08;73.14;100306.56;6212939;23;20027;-74
2022/09/16 00:53:35;;;;;;;9.68;3.92;;;;;;;20.99;73.14;100299.03;6150244;23;20037;-73
2022/09/16 00:56:11;;;;;;;9.90;4.00;;;;;;;20.79;73.39;100265.94;6151400;23;20025;-74
2022/09/16 00:58:47;;;;;;;7.85;4.40;;;;;;;21.06;73.36;100318.31;6189017;23;20091;-74
2022/09/16 01:01:14;;;;;;;8.35;3.30;;;;;;;21.14;72.86;100330.72;6213382;23;20025;-74
2022/09/16 01:03:49;;;;;;;6.70;4.22;;;;;;;21.16;72.83;100325.47;6214297;23;20028;-74
2022/09/16 01:06:17;;;;;;;9.45;3.85;;;;;;;21.11;72.83;100312.38;6214367;23;20027;-73
2022/09/16 01:08:48;;;;;;;8.95;3.97;;;;;;;21.17;72.85;100321.47;6214419;23;20028;-73
2022/09/16 01:11:15;;;;;;;10.15;3.58;;;;;;;21.19;72.98;100330.44;6186336;23;20036;-73
2022/09/16 01:13:43;;;;;;;8.05;5.07;;;;;;;21.11;72.60;100320.06;6213156;23;20024;-73
2022/09/16 01:16:16;;;;;;;8.88;3.78;;;;;;;21.10;72.63;100324.09;6213199;23;20025;-72
2022/09/16 01:18:52;;;;;;;9.02;4.05;;;;;;;20.98;72.54;100303.03;6214754;23;20017;-74
2022/09/16 01:21:44;;;;;;;8.88;4.65;;;;;;;21.06;72.30;100324.81;6212263;23;20025;-73
2022/09/16 01:24:26;;;;;;;10.70;4.07;;;;;;;21.03;72.33;100319.84;6211353;23;20059;-75
2022/09/16 01:26:59;;;;;;;9.68;4.35;;;;;;;21.05;72.25;100323.13;6212820;23;20466;-72
2022/09/16 01:30:04;;;;;;;7.32;3.60;;;;;;;20.99;72.08;100313.22;6211602;23;20021;-73
2022/09/16 01:32:53;;;;;;;10.00;4.10;;;;;;;20.99;72.47;100318.91;6195621;23;20031;-72
2022/09/16 01:35:44;;;;;;;10.52;4.45;;;;;;;20.91;72.42;100316.19;6214944;23;20021;-72
2022/09/16 01:38:29;;;;;;;11.75;4.72;;;;;;;21.03;72.48;100336.88;6200268;23;20031;-72
2022/09/16 01:41:12;;;;;;;11.05;4.68;;;;;;;20.93;72.44;100306.13;6213654;23;20031;-72
2022/09/16 01:43:44;;;;;;;7.30;4.90;;;;;;;20.98;72.58;100322.91;6216224;23;20360;-74
2022/09/16 01:46:30;;;;;;;9.18;4.18;;;;;;;20.90;72.49;100320.22;6214440;23;20025;-73
2022/09/16 01:49:15;;;;;;;10.30;5.05;;;;;;;20.87;72.47;100316.06;6214643;23;20060;-74
2022/09/16 01:51:46;;;;;;;8.98;4.15;;;;;;;20.76;72.53;100300.72;6214617;23;20021;-73
2022/09/16 01:54:41;;;;;;;13.05;4.70;;;;;;;20.74;72.31;100312.41;6216042;23;20028;-73
2022/09/16 01:57:36;;;;;;;9.25;5.13;;;;;;;20.61;72.51;100298.56;6202627;23;20021;-74
2022/09/16 02:00:05;;;;;;;9.93;4.88;;;;;;;20.72;72.39;100323.28;6215094;23;20021;-73
2022/09/16 02:02:37;;;;;;;8.57;5.03;;;;;;;20.56;72.66;100317.50;6215704;23;20021;-71
2022/09/16 02:05:11;;;;;;;17.20;4.78;;;;;;;20.54;72.77;100308.50;6214831;23;20189;-71
2022/09/16 02:07:45;;;;;;;7.38;4.68;;;;;;;20.66;72.50;100321.03;6214120;23;20028;-71
2022/09/16 02:10:30;;;;;;;12.98;5.28;;;;;;;20.63;72.33;100314.06;6214916;23;20036;-71
2022/09/16 02:13:11;;;;;;;12.48;5.32;;;;;;;20.58;72.32;100298.13;6215265;23;20471;-72
2022/09/16 02:15:42;;;;;;;9.82;4.38;;;;;;;20.56;72.17;100299.66;6213450;23;20047;-73
2022/09/16 02:18:12;;;;;;;12.00;4.68;;;;;;;20.57;72.45;100304.13;6215157;23;20395;-76
2022/09/16 02:20:44;;;;;;;12.90;4.95;;;;;;;20.40;72.36;100284.47;6214077;23;20024;-75
2022/09/16 02:23:18;;;;;;;6.70;4.32;;;;;;;20.36;72.37;100276.66;6214182;23;20020;-76
2022/09/16 02:25:47;;;;;;;10.45;4.47;;;;;;;20.41;72.57;100277.59;6214573;23;20539;-76
2022/09/16 02:28:26;;;;;;;10.90;5.38;;;;;;;20.53;72.62;100301.16;6214940;23;20025;-75
2022/09/16 02:30:57;;;;;;;12.10;5.20;;;;;;;20.48;72.42;100292.88;6214082;23;20024;-75
2022/09/16 02:33:32;;;;;;;16.23;6.63;;;;;;;20.25;72.35;100249.13;6214658;23;20025;-75
2022/09/16 02:36:01;;;;;;;14.27;4.75;;;;;;;20.42;72.68;100271.59;6188838;23;20032;-75
2022/09/16 02:38:39;;;;;;;14.43;6.65;;;;;;;20.40;72.43;100273.94;6215267;23;20027;-76
2022/09/16 02:41:08;;;;;;;17.90;7.25;;;;;;;20.46;72.72;100285.91;6214530;23;20044;-75
2022/09/16 02:43:35;;;;;;;14.65;6.22;;;;;;;20.48;72.78;100298.56;6214222;23;20021;-74
2022/09/16 02:46:31;;;;;;;15.23;7.00;;;;;;;20.55;72.80;100298.81;6213472;23;20329;-73
2022/09/16 02:49:09;;;;;;;12.35;5.95;;;;;;;20.53;72.85;100318.19;6213559;23;20404;-72
2022/09/16 02:51:45;;;;;;;12.93;5.60;;;;;;;20.51;72.63;100305.53;6214472;23;20027;-72
2022/09/16 02:54:21;;;;;;;13.70;4.57;;;;;;;20.46;72.59;100312.25;6214161;23;20027;-72
2022/09/16 02:56:48;;;;;;;7.72;4.13;;;;;;;20.22;72.73;100270.50;6188575;23;20355;-73
2022/09/16 02:59:16;;;;;;;9.50;4.40;;;;;;;20.35;72.74;100296.88;6214266;23;20035;-72
2022/09/16 03:01:44;;;;;;;12.10;4.75;;;;;;;20.40;72.34;100298.66;6213227;23;20040;-73
2022/09/16 03:04:14;;;;;;;8.30;4.68;;;;;;;20.13;72.72;100245.09;6214247;23;20485;-73
2022/09/16 03:06:41;;;;;;;12.52;4.50;;;;;;;20.40;72.61;100290.97;6212820;23;20020;-72
2022/09/16 03:09:13;;;;;;;14.57;5.18;;;;;;;20.35;72.48;100262.84;6215356;23;20379;-72
2022/09/16 03:11:58;;;;;;;10.55;4.65;;;;;;;20.43;72.30;100284.59;6213144;23;20020;-74
2022/09/16 03:14:46;;;;;;;8.63;4.18;;;;;;;20.36;72.39;100278.69;6214856;23;20040;-74
2022/09/16 03:17:31;;;;;;;11.40;4.82;;;;;;;20.36;72.63;100278.69;6214629;23;20030;-73
2022/09/16 03:20:38;;;;;;;9.57;4.75;;;;;;;20.37;72.71;100283.16;6188947;23;20348;-73
2022/09/16 03:23:17;;;;;;;11.98;4.93;;;;;;;20.26;72.95;100273.47;6165118;23;20355;-74
2022/09/16 03:25:58;;;;;;;11.10;5.38;;;;;;;20.39;72.94;100277.16;6215009;23;20340;-73
2022/09/16 03:29:14;;;;;;;13.70;5.47;;;;;;;19.97;72.99;100215.81;6215464;23;20021;-73
2022/09/16 03:31:56;;;;;;;7.70;4.70;;;;;;;20.40;72.84;100275.97;6188425;23;20024;-72
2022/09/16 03:34:32;;;;;;;15.45;6.25;;;;;;;20.26;72.54;100254.44;6214462;23;20024;-70
2022/09/16 03:37:06;;;;;;;12.07;5.03;;;;;;;20.31;72.87;100262.72;6215174;23;20021;-72
2022/09/16 03:39:35;;;;;;;10.30;5.47;;;;;;;20.25;72.84;100252.81;6214930;23;20092;-71
2022/09/16 03:42:06;;;;;;;8.68;4.82;;;;;;;20.39;72.94;100272.31;6188236;23;20036;-72
2022/09/16 03:44:35;;;;;;;9.98;4.38;;;;;;;20.34;72.58;100264.00;6214481;23;20028;-71
2022/09/16 03:47:03;;;;;;;12.02;4.28;;;;;;;20.24;72.55;100244.63;6213557;23;20021;-71
2022/09/16 03:49:30;;;;;;;11.85;4.32;;;;;;;20.33;72.39;100268.03;6214686;23;20021;-72
2022/09/16 03:51:57;;;;;;;8.57;4.72;;;;;;;20.32;72.41;100258.72;6212874;23;20027;-77
2022/09/16 03:54:24;;;;;;;9.93;5.28;;;;;;;20.25;72.33;100264.13;6214131;23;20028;-78
2022/09/16 03:56:51;;;;;;;12.45;5.07;;;;;;;20.15;72.23;100238.25;6213872;23;20043;-77
2022/09/16 03:59:18;;;;;;;10.07;4.75;;;;;;;20.28;72.24;100266.28;6215132;23;20475;-77
2022/09/16 04:01:45;;;;;;;12.05;4.55;;;;;;;20.22;72.24;100264.84;6213493;23;20044;-75
2022/09/16 04:04:12;;;;;;;13.20;4.90;;;;;;;20.18;72.21;100265.91;6187915;23;20096;-75
2022/09/16 04:06:39;;;;;;;13.55;4.40;;;;;;;20.11;72.02;100258.00;6212972;23;20020;-76
2022/09/16 04:09:07;;;;;;;7.80;4.57;;;;;;;20.17;72.31;100264.22;6187765;23;20028;-76
2022/09/16 04:11:34;;;;;;;8.75;4.47;;;;;;;20.10;72.05;100256.31;6214911;23;20040;-74
2022/09/16 04:14:03;;;;;;;7.32;5.22;;;;;;;20.17;72.04;100264.22;6213726;23;20456;-75
2022/09/16 04:16:30;;;;;;;10.57;4.28;;;;;;;19.98;71.99;100227.97;6185968;23;20475;-75
2022/09/16 04:18:57;;;;;;;14.57;4.72;;;;;;;20.09;72.26;100246.16;6213560;23;20025;-75
2022/09/16 04:21:24;;;;;;;9.20;5.38;;;;;;;20.11;72.28;100247.47;6214348;23;20222;-75
2022/09/16 04:23:53;;;;;;;14.18;4.85;;;;;;;20.07;72.31;100238.03;6213494;23;20355;-74
2022/09/16 04:26:20;;;;;;;9.65;5.32;;;;;;;20.07;72.50;100243.69;6213619;23;20025;-73
2022/09/16 04:28:47;;;;;;;12.68;5.00;;;;;;;20.16;72.84;100248.41;6212433;23;20027;-71
2022/09/16 04:31:15;;;;;;;12.90;5.25;;;;;;;20.15;72.67;100236.25;6214823;23;20028;-72
2022/09/16 04:33:42;;;;;;;7.93;4.47;;;;;;;20.18;72.87;100261.06;6213937;23;20024;-73
2022/09/16 04:36:17;;;;;;;11.80;4.30;;;;;;;20.12;72.73;100249.13;6213383;23;20028;-72
2022/09/16 04:38:46;;;;;;;8.00;4.10;;;;;;;19.95;72.86;100223.81;6213834;23;20229;-74
2022/09/16 04:41:16;;;;;;;10.50;4.70;;;;;;;20.03;72.93;100242.75;6214668;23;20352;-72
2022/09/16 04:43:43;;;;;;;11.20;6.30;;;;;;;20.00;73.19;100243.44;6213253;23;20047;-73
2022/09/16 04:46:12;;;;;;;11.05;6.13;;;;;;;19.99;73.31;100233.28;6213485;23;20035;-74
2022/09/16 04:48:39;;;;;;;13.90;11.82;;;;;;;20.11;73.21;100249.47;6213361;23;20092;-73
2022/09/16 04:51:08;;;;;;;12.93;10.95;;;;;;;20.10;73.28;100251.50;6213034;23;20032;-73
2022/09/16 04:53:37;;;;;;;12.45;10.93;;;;;;;20.08;73.42;100245.34;6185928;23;20351;-74
2022/09/16 04:56:15;;;;;;;11.18;10.20;;;;;;;20.12;73.29;100251.94;6187491;23;20024;-74
2022/09/16 04:58:44;;;;;;;14.43;11.30;;;;;;;20.11;73.35;100249.47;6187161;23;20028;-73
2022/09/16 05:01:13;;;;;;;14.10;10.85;;;;;;;20.11;73.20;100246.66;6213878;23;20200;-73
2022/09/16 05:03:46;;;;;;;12.93;11.70;;;;;;;20.07;73.51;100248.53;6188000;23;20025;-73
2022/09/16 05:06:18;;;;;;;12.07;10.98;;;;;;;19.95;73.40;100229.50;6215003;23;20360;-74
2022/09/16 05:08:47;;;;;;;12.65;11.40;;;;;;;19.97;73.92;100261.16;6189694;23;20044;-75
2022/09/16 05:11:17;;;;;;;16.83;11.60;;;;;;;19.79;73.84;100237.81;6215749;23;20348;-73
2022/09/16 05:13:44;;;;;;;11.52;10.63;;;;;;;19.95;73.68;100269.16;6216592;23;20024;-75
2022/09/16 05:16:17;;;;;;;13.68;11.35;;;;;;;19.80;73.66;100239.50;6215498;23;20031;-75
2022/09/16 05:18:46;;;;;;;13.60;12.18;;;;;;;19.99;73.36;100258.78;6215496;23;20052;-74
2022/09/16 05:21:16;;;;;;;13.30;12.10;;;;;;;19.99;73.27;100253.09;6215396;23;20020;-74
2022/09/16 05:23:44;;;;;;;13.88;11.82;;;;;;;19.72;73.61;100242.41;6215396;23;20355;-75
2022/09/16 05:26:15;;;;;;;31.90;13.00;;;;;;;19.59;73.90;100236.69;6215099;23;20403;-75
2022/09/16 05:28:42;;;;;;;13.95;12.30;;;;;;;19.58;74.32;100254.03;6214409;23;20035;-74
2022/09/16 05:31:14;;;;;;;24.25;12.68;;;;;;;19.40;74.49;100242.88;6215244;23;20046;-73
2022/09/16 05:33:44;;;;;;;17.08;13.27;;;;;;;19.42;74.63;100256.69;6190189;23;20042;-73
2022/09/16 05:36:15;;;;;;;16.42;13.40;;;;;;;19.31;74.85;100261.13;6216961;23;20032;-73
2022/09/16 05:38:43;;;;;;;21.42;12.38;;;;;;;19.17;74.65;100239.56;6215833;23;20020;-73
2022/09/16 05:41:30;;;;;;;18.40;13.80;;;;;;;19.45;74.38;100264.47;6215881;23;20475;-73
2022/09/16 05:44:00;;;;;;;20.10;13.63;;;;;;;19.32;74.54;100242.97;6215445;23;20028;-74
2022/09/16 05:46:27;;;;;;;16.13;13.73;;;;;;;19.22;75.17;100247.06;6215845;23;20027;-71
2022/09/16 05:48:55;;;;;;;14.45;12.80;;;;;;;19.21;75.08;100248.22;6215321;23;20025;-74
2022/09/16 05:51:24;;;;;;;23.08;14.60;;;;;;;19.37;75.06;100265.41;6216083;23;20025;-74
2022/09/16 05:53:52;;;;;;;13.93;12.55;;;;;;;19.27;75.38;100268.66;6215675;23;20027;-74
2022/09/16 05:56:22;;;;;;;13.45;12.35;;;;;;;19.14;75.60;100234.63;6215837;23;20025;-74
2022/09/16 05:58:51;;;;;;;13.60;12.55;;;;;;;19.33;75.48;100248.28;6212685;23;20024;-75
2022/09/16 06:01:21;;;;;;;13.02;11.88;;;;;;;19.46;74.87;100254.00;6211574;23;20021;-73
2022/09/16 06:03:49;;;;;;;13.40;12.35;;;;;;;19.51;74.91;100260.25;6212464;23;20103;-72
2022/09/16 06:06:28;;;;;;;13.73;12.73;;;;;;;19.63;75.34;100262.34;6214792;23;20020;-74
2022/09/16 06:08:57;;;;;;;18.47;11.93;;;;;;;19.70;75.38;100273.13;6213989;23;20032;-74
2022/09/16 06:11:26;;;;;;;17.67;12.60;;;;;;;19.60;75.43;100275.16;6188227;23;20024;-78
2022/09/16 06:13:55;;;;;;;38.35;13.60;;;;;;;19.24;75.68;100255.19;6214160;23;20024;-73
2022/09/16 06:16:24;;;;;;;36.73;14.13;;;;;;;19.24;76.16;100272.16;6213880;23;20034;-74
2022/09/16 06:18:52;;;;;;;42.92;13.40;;;;;;;19.23;76.14;100277.00;6188365;23;20281;-75
2022/09/16 06:21:20;;;;;;;37.13;12.75;;;;;;;19.24;76.38;100269.34;6188379;23;20028;-73
2022/09/16 06:23:47;;;;;;;50.80;14.40;;;;;;;19.11;76.34;100265.59;6207517;23;20024;-74
2022/09/16 06:26:17;;;;;;;34.10;15.05;;;;;;;19.04;76.58;100263.34;6212394;23;20024;-74
2022/09/16 06:28:44;;;;;;;;;;;;;;;18.93;77.34;100274.22;6212552;23;20368;-75
2022/09/16 06:31:29;;;;;;;53.03;14.95;;;;;;;18.72;76.13;100205.50;6186864;23;20354;-75
2022/09/16 06:33:57;;;;;;;23.10;14.73;;;;;;;19.26;75.96;100281.16;6213051;23;20024;-74
2022/09/16 06:36:27;;;;;;;23.23;13.35;;;;;;;19.23;75.95;100262.84;6212606;23;20020;-74
2022/09/16 06:38:54;;;;;;;19.95;14.80;;;;;;;19.33;75.79;100284.25;6213660;23;20021;-74
2022/09/16 06:41:22;;;;;;;16.85;14.88;;;;;;;19.24;75.59;100260.84;6213018;23;20358;-74
2022/09/16 06:43:50;;;;;;;17.05;12.45;;;;;;;19.36;75.42;100269.41;6212454;23;20021;-74
2022/09/16 06:46:25;;;;;;;19.50;16.77;;;;;;;19.44;75.33;100274.16;6161005;23;20477;-74
2022/09/16 06:48:55;;;;;;;19.50;15.05;;;;;;;19.62;75.41;100289.84;6212125;23;20474;-73
2022/09/16 06:51:28;;;;;;;16.95;15.57;;;;;;;19.68;75.56;100281.94;6215006;23;20070;-73
2022/09/16 06:53:59;;;;;;;;;;;;;;;19.62;75.87;100287.00;6214759;23;20347;-74
2022/09/16 06:56:26;;;;;;;15.63;14.13;;;;;;;19.82;75.81;100301.47;6212291;23;19923;-73
2022/09/16 06:58:54;;;;;;;22.55;14.68;;;;;;;19.87;75.48;100292.78;6213201;23;20025;-73
2022/09/16 07:01:29;;;;;;;16.02;14.52;;;;;;;19.95;75.39;100303.19;6211339;23;20020;-73
2022/09/16 07:03:57;;;;;;;16.08;14.57;;;;;;;19.98;75.57;100293.97;6184267;23;20051;-74
2022/09/16 07:06:28;;;;;;;15.90;14.40;;;;;;;20.13;75.36;100292.47;6214614;23;20024;-74
2022/09/16 07:09:15;;;;;;;16.08;14.60;;;;;;;20.17;74.96;100273.59;6215002;23;20091;-73
2022/09/16 07:11:42;;;;;;;14.43;13.23;;;;;;;20.30;75.15;100294.25;6214794;23;20103;-75
2022/09/16 07:14:09;;;;;;;14.48;13.20;;;;;;;20.47;74.78;100296.88;6215604;23;20020;-73
2022/09/16 07:16:36;;;;;;;14.95;13.60;;;;;;;20.61;74.77;100295.72;6215570;23;20356;-73
2022/09/16 07:19:03;;;;;;;17.13;15.43;;;;;;;20.71;74.65;100283.91;6214945;23;20051;-74
2022/09/16 07:21:30;;;;;;;18.75;16.95;;;;;;;20.81;74.58;100277.75;6212897;23;20024;-74
2022/09/16 07:24:00;;;;;;;16.08;14.45;;;;;;;21.04;74.43;100280.91;6214886;23;20105;-72
2022/09/16 07:26:32;;;;;;;16.67;15.23;;;;;;;21.35;74.32;100302.16;6212383;23;20027;-73
2022/09/16 07:29:01;;;;;;;14.73;13.30;;;;;;;21.49;74.39;100306.25;6213392;23;20048;-73
2022/09/16 07:31:30;;;;;;;17.15;15.65;;;;;;;21.64;74.33;100304.69;6211864;23;20407;-73
2022/09/16 07:34:00;;;;;;;20.17;18.40;;;;;;;21.67;74.38;100286.06;6206962;23;20043;-75
2022/09/16 07:36:33;;;;;;;17.95;16.45;;;;;;;21.99;74.20;100282.09;6211281;23;20025;-75
2022/09/16 07:39:01;;;;;;;15.32;13.80;;;;;;;22.27;73.40;100303.19;6213759;23;20031;-73
2022/09/16 07:41:31;;;;;;;15.10;13.80;;;;;;;22.12;72.62;100254.44;6215096;23;20025;-74
2022/09/16 07:43:59;;;;;;;14.95;13.60;;;;;;;22.64;72.88;100303.75;6187819;23;20390;-73
2022/09/16 07:46:28;;;;;;;14.85;13.43;;;;;;;22.85;71.67;100301.41;6214285;23;20020;-73
2022/09/16 07:48:57;;;;;;;16.05;14.45;;;;;;;23.10;71.09;100309.75;6214334;23;20020;-76
2022/09/16 07:51:25;;;;;;;14.88;13.48;;;;;;;23.29;70.63;100314.66;6215129;23;20360;-74
2022/09/16 07:53:54;;;;;;;20.65;13.98;;;;;;;23.41;70.50;100312.47;6211426;23;20035;-74
2022/09/16 07:56:24;;;;;;;15.68;13.98;;;;;;;23.64;70.29;100312.56;6213180;23;20039;-73
2022/09/16 07:58:53;;;;;;;15.57;14.15;;;;;;;23.71;69.55;100300.53;6212793;23;20017;-73
2022/09/16 08:01:20;;;;;;;15.38;13.80;;;;;;;23.78;69.55;100294.97;6213648;23;20059;-73
2022/09/16 08:03:47;;;;;;;15.07;13.70;;;;;;;24.06;69.06;100313.84;6212368;23;20032;-73
2022/09/16 08:06:17;;;;;;;15.05;13.57;;;;;;;24.28;68.53;100320.78;6211657;23;20025;-73
2022/09/16 08:08:45;;;;;;;14.48;13.05;;;;;;;24.58;67.85;100316.06;6213198;23;20021;-74
2022/09/16 08:11:13;;;;;;;16.88;14.27;;;;;;;24.75;67.23;100317.59;6209524;23;20075;-73
2022/09/16 08:13:42;;;;;;;14.30;13.15;;;;;;;25.10;66.48;100327.91;6186607;23;20024;-73
2022/09/16 08:16:13;;;;;;;19.83;14.27;;;;;;;25.46;65.73;100317.84;6211484;23;20104;-73
2022/09/16 08:18:40;;;;;;;14.15;12.98;;;;;;;25.93;64.72;100327.06;6212432;23;20040;-73
2022/09/16 08:21:16;;;;;;;18.40;16.95;;;;;;;26.12;64.65;100314.56;6210361;23;20043;-74
2022/09/16 08:23:44;;;;;;;15.27;13.30;;;;;;;26.46;62.84;100332.50;6212799;23;20036;-73
2022/09/16 08:26:12;;;;;;;14.68;13.25;;;;;;;26.66;62.29;100338.88;6210743;23;20032;-73
2022/09/16 08:28:41;;;;;;;17.80;16.20;;;;;;;26.69;61.68;100284.47;6212222;23;20016;-71
2022/09/16 08:31:28;;;;;;;18.23;16.57;;;;;;;26.94;60.59;100326.84;6189613;23;20087;-73
2022/09/16 08:33:55;;;;;;;17.33;15.63;;;;;;;27.29;60.35;100336.94;6212232;23;20564;-73
2022/09/16 08:36:23;;;;;;;14.40;13.20;;;;;;;27.52;59.75;100333.78;6210638;23;20025;-72
2022/09/16 08:38:53;;;;;;;14.20;12.83;;;;;;;27.56;59.00;100312.50;6206796;23;20482;-73
2022/09/16 08:41:23;;;;;;;15.15;13.93;;;;;;;27.62;58.26;100344.47;6212772;23;20471;-73
2022/09/16 08:44:05;;;;;;;14.23;13.15;;;;;;;27.92;58.16;100340.56;6213014;23;20020;-73
2022/09/16 08:46:49;;;;;;;13.65;12.45;;;;;;;28.05;57.54;100336.91;6213291;23;20042;-73
2022/09/16 08:49:45;;;;;;;13.45;12.35;;;;;;;28.23;57.42;100333.25;6209788;23;20021;-72
2022/09/16 08:52:15;;;;;;;15.07;13.88;;;;;;;28.30;56.77;100339.84;6212077;23;20048;-72
2022/09/16 08:54:53;;;;;;;14.80;13.30;;;;;;;28.52;56.59;100334.19;6211157;23;20043;-73
2022/09/16 08:57:25;;;;;;;16.77;15.47;;;;;;;28.33;55.28;100312.38;6185373;23;20044;-72
2022/09/16 08:59:56;;;;;;;14.02;12.82;;;;;;;28.55;55.50;100325.56;6210308;23;20020;-72
2022/09/16 09:02:52;;;;;;;14.05;12.75;;;;;;;28.56;54.87;100329.25;6212729;23;20025;-73
2022/09/16 09:05:43;;;;;;;16.75;15.45;;;;;;;28.87;54.84;100339.13;6185398;23;20025;-72
2022/09/16 09:08:25;;;;;;;15.45;14.20;;;;;;;29.23;54.72;100295.97;6183268;23;20043;-72
2022/09/16 09:11:08;;;;;;;17.15;15.02;;;;;;;29.73;53.79;100333.25;6185103;23;20032;-74
2022/09/16 09:13:59;;;;;;;16.00;14.40;;;;;;;29.72;53.38;100323.78;6211734;23;20034;-73
2022/09/16 09:17:01;;;;;;;16.77;15.45;;;;;;;29.97;53.48;100323.69;6212260;23;20025;-71
2022/09/16 09:19:50;;;;;;;15.60;12.20;;;;;;;30.59;52.60;100338.56;6211146;23;20692;-71
2022/09/16 09:22:35;;;;;;;14.80;13.40;;;;;;;31.01;52.36;100337.44;6185202;23;20024;-72
2022/09/16 09:25:16;;;;;;;13.80;12.52;;;;;;;31.27;51.35;100338.00;6211368;23;20043;-70
2022/09/16 09:28:02;;;;;;;12.77;11.68;;;;;;;31.49;51.29;100332.81;6210087;23;20020;-72
2022/09/16 09:30:33;;;;;;;14.75;13.55;;;;;;;31.83;49.72;100325.00;6209992;23;20024;-71
2022/09/16 09:33:08;;;;;;;13.77;12.57;;;;;;;32.24;49.24;100323.22;6211785;23;20355;-71
2022/09/16 09:36:21;;;;;;;13.57;12.02;;;;;;;32.45;48.81;100319.25;6211408;23;20029;-71
2022/09/16 09:39:15;;;;;;;16.10;14.90;;;;;;;32.51;48.89;100317.47;6212517;23;20020;-72
2022/09/16 09:41:51;;;;;;;11.50;10.57;;;;;;;32.78;47.73;100324.03;6211936;23;20036;-77
2022/09/16 09:44:40;;;;;;;16.33;14.70;;;;;;;32.96;47.59;100325.88;6212530;23;20025;-79
2022/09/16 09:47:14;;;;;;;13.63;12.32;;;;;;;33.15;47.03;100322.19;6211789;23;20035;-73
2022/09/16 09:49:52;;;;;;;13.05;12.15;;;;;;;33.41;46.54;100334.13;6211062;23;20025;-75
2022/09/16 09:52:22;;;;;;;15.93;14.63;;;;;;;33.60;45.73;100341.22;6211306;23;20677;-75
2022/09/16 09:54:50;;;;;;;13.05;11.85;;;;;;;33.75;45.74;100321.50;6213481;23;20020;-75
2022/09/16 09:57:36;;;;;;;13.63;12.43;;;;;;;33.93;45.51;100314.03;6213112;23;20035;-75
2022/09/16 10:00:13;;;;;;;16.58;15.07;;;;;;;34.18;44.35;100330.06;6212630;23;20494;-75
2022/09/16 10:02:42;;;;;;;15.30;12.60;;;;;;;34.27;44.17;100318.69;6187638;23;20086;-74
2022/09/16 10:05:22;;;;;;;16.63;14.25;;;;;;;34.44;43.84;100334.03;6211623;23;20033;-74
2022/09/16 10:07:57;;;;;;;14.27;12.95;;;;;;;34.57;43.54;100329.19;6188877;23;20027;-76
2022/09/16 10:10:26;;;;;;;14.30;13.13;;;;;;;34.66;43.01;100331.47;6212999;23;20024;-74
2022/09/16 10:12:54;;;;;;;14.20;12.90;;;;;;;34.61;43.18;100327.03;6213645;23;20043;-75
2022/09/16 10:15:33;;;;;;;13.77;12.60;;;;;;;34.81;42.67;100334.84;6213369;23;20028;-76
2022/09/16 10:18:00;;;;;;;;;;;;;;;34.73;45.33;100336.25;6211880;23;20032;-75
2022/09/16 10:20:34;;;;;;;13.50;12.25;;;;;;;34.86;43.67;100319.78;6211917;23;19923;-76
2022/09/16 10:23:14;;;;;;;13.80;11.07;;;;;;;34.89;42.51;100321.78;6213250;23;20025;-75
2022/09/16 10:25:42;;;;;;;12.88;11.68;;;;;;;34.82;42.49;100327.75;6212639;23;20101;-75
2022/09/16 10:28:19;;;;;;;13.63;12.07;;;;;;;34.86;43.01;100319.78;6213707;23;20471;-76
2022/09/16 10:30:57;;;;;;;13.23;12.23;;;;;;;35.00;42.27;100322.28;6211870;23;20368;-75
2022/09/16 10:33:31;;;;;;;14.45;12.00;;;;;;;35.13;41.80;100302.91;6183868;23;20028;-76
2022/09/16 10:36:09;;;;;;;12.18;11.18;;;;;;;35.38;41.45;100324.63;6213293;23;20024;-74
2022/09/16 10:38:42;;;;;;;12.23;11.20;;;;;;;35.41;40.74;100305.47;6187047;23;20021;-75
2022/09/16 10:41:24;;;;;;;12.15;11.32;;;;;;;35.30;41.48;100314.50;6212079;23;20025;-75
2022/09/16 10:43:53;;;;;;;12.93;11.73;;;;;;;35.38;40.49;100310.09;6211323;23;20024;-74
2022/09/16 10:46:20;;;;;;;13.00;11.93;;;;;;;35.48;40.75;100316.88;6210966;23;20024;-74
2022/09/16 10:48:50;;;;;;;12.55;11.55;;;;;;;35.62;40.45;100313.59;6213467;23;20402;-74
2022/09/16 10:51:30;;;;;;;13.07;12.00;;;;;;;35.61;40.10;100314.88;6220406;23;20029;-74
2022/09/16 10:53:59;;;;;;;12.20;11.20;;;;;;;35.70;39.75;100305.50;6218628;23;20347;-74
2022/09/16 10:56:48;;;;;;;14.93;13.60;;;;;;;35.60;40.22;100290.84;6199867;23;20054;-74
2022/09/16 10:59:14;;;;;;;12.98;11.68;;;;;;;35.58;40.63;100295.47;6216814;23;20016;-73
2022/09/16 11:02:01;;;;;;;12.30;11.18;;;;;;;35.84;40.30;100299.28;6191454;23;20028;-74
2022/09/16 11:04:57;;;;;;;12.40;11.35;;;;;;;35.68;40.18;100308.06;6184131;23;20024;-74
2022/09/16 11:07:36;;;;;;;12.82;11.63;;;;;;;35.69;39.15;100315.47;6209135;23;20356;-73
2022/09/16 11:10:24;;;;;;;13.30;12.13;;;;;;;35.67;39.24;100294.81;6212190;23;20359;-74
2022/09/16 11:13:00;;;;;;;15.25;13.85;;;;;;;35.79;39.22;100314.34;6187973;23;20025;-74
2022/09/16 11:15:48;;;;;;;12.95;11.98;;;;;;;35.69;39.35;100292.25;6186685;23;20032;-74
2022/09/16 11:18:15;;;;;;;;;;;;;;;35.37;41.94;100299.78;6212947;23;20043;-74
2022/09/16 11:21:00;;;;;;;12.55;11.43;;;;;;;35.89;40.01;100289.16;6212321;23;19935;-74
2022/09/16 11:23:41;;;;;;;11.82;11.02;;;;;;;36.08;38.82;100299.00;6213418;23;20025;-75
2022/09/16 11:26:53;;;;;;;12.90;11.85;;;;;;;36.06;39.47;100294.44;6212315;23;20024;-73
2022/09/16 11:29:41;;;;;;;12.35;11.25;;;;;;;35.89;39.02;100271.72;6141809;23;20021;-74
2022/09/16 11:32:16;;;;;;;12.60;11.60;;;;;;;35.34;38.91;100289.88;6212429;23;20483;-74
2022/09/16 11:35:22;;;;;;;13.05;11.90;;;;;;;34.86;39.91;100282.06;6212471;23;20028;-74
2022/09/16 11:38:15;;;;;;;13.63;12.52;;;;;;;35.16;39.59;100277.16;6213536;23;20024;-74
2022/09/16 11:40:45;;;;;;;15.05;13.38;;;;;;;35.36;39.32;100293.16;6212707;23;20025;-76
2022/09/16 11:43:27;;;;;;;15.80;12.95;;;;;;;35.74;39.21;100282.97;6185419;23;20025;-75
2022/09/16 11:45:57;;;;;;;13.70;12.55;;;;;;;36.43;38.26;100289.13;6187002;23;20021;-74